Gordon, United Kingdom
Current Conditions -  °F | °C
As of 2:20 PM on Tuesday 21 Oct 2014 (Local Time) from EGPH Reporting Station
Few Clouds Few Clouds  
Wind Chill: 50°   Ceiling: Unl
Heat Index: 50°   Visibility: 6mi
Dew Point: 34°   Wind: 21mph
Humidity: 54%   Direction: 290°WNW
Pressure: 29.53"   Gusts: 33mph
Location:  55.69°N, 2.57°W
Report Text: EGPH 211320Z 29018G29KT 9999 FEW040 10/01 Q1000
Loading
Personal Weather Stations






























Interactive Weather Map
Tropical Storm Tracking
New forecast layout! Learn more

10-Day Weather Forecast

Advertisements
Track Severe Weather on mobile